sensor_id;sensor_type;location;lat;lon;timestamp;temperature;humidity
16635;DHT22;8431;52.458;9.998;2023-10-19T00:02:14;7.10;99.90
16635;DHT22;8431;52.458;9.998;2023-10-19T00:04:44;7.10;99.90
16635;DHT22;8431;52.458;9.998;2023-10-19T00:07:13;7.00;99.90
16635;DHT22;8431;52.458;9.998;2023-10-19T00:09:42;7.00;99.90
16635;DHT22;8431;52.458;9.998;2023-10-19T00:12:11;7.00;99.90
16635;DHT22;8431;52.458;9.998;2023-10-19T00:14:40;7.00;99.90
16635;DHT22;8431;52.458;9.998;2023-10-19T00:17:07;7.00;99.90
16635;DHT22;8431;52.458;9.998;2023-10-19T00:19:38;7.00;99.90
16635;DHT22;8431;52.458;9.998;2023-10-19T00:22:07;7.00;99.90
16635;DHT22;8431;52.458;9.998;2023-10-19T00:24:41;7.00;99.90
16635;DHT22;8431;52.458;9.998;2023-10-19T00:27:09;7.00;99.90
16635;DHT22;8431;52.458;9.998;2023-10-19T00:29:42;7.00;99.90
16635;DHT22;8431;52.458;9.998;2023-10-19T00:32:13;7.00;99.90
16635;DHT22;8431;52.458;9.998;2023-10-19T00:34:42;7.00;99.90
16635;DHT22;8431;52.458;9.998;2023-10-19T00:37:16;7.10;99.90
16635;DHT22;8431;52.458;9.998;2023-10-19T00:39:45;7.00;99.90
16635;DHT22;8431;52.458;9.998;2023-10-19T00:42:19;7.00;99.90
16635;DHT22;8431;52.458;9.998;2023-10-19T00:44:50;7.00;99.90
16635;DHT22;8431;52.458;9.998;2023-10-19T00:47:20;7.00;99.90
16635;DHT22;8431;52.458;9.998;2023-10-19T00:49:51;7.00;99.90
16635;DHT22;8431;52.458;9.998;2023-10-19T00:52:20;7.00;99.90
16635;DHT22;8431;52.458;9.998;2023-10-19T00:54:50;7.00;99.90
16635;DHT22;8431;52.458;9.998;2023-10-19T00:57:21;7.00;99.90
16635;DHT22;8431;52.458;9.998;2023-10-19T00:59:57;7.00;99.90
16635;DHT22;8431;52.458;9.998;2023-10-19T01:02:37;7.00;99.90
16635;DHT22;8431;52.458;9.998;2023-10-19T01:05:10;6.90;99.90
16635;DHT22;8431;52.458;9.998;2023-10-19T01:07:39;6.90;99.90
16635;DHT22;8431;52.458;9.998;2023-10-19T01:10:08;6.90;99.90
16635;DHT22;8431;52.458;9.998;2023-10-19T01:12:37;6.90;99.90
16635;DHT22;8431;52.458;9.998;2023-10-19T01:15:07;7.00;99.90
16635;DHT22;8431;52.458;9.998;2023-10-19T01:17:38;6.90;99.90
16635;DHT22;8431;52.458;9.998;2023-10-19T01:20:12;6.80;99.90
16635;DHT22;8431;52.458;9.998;2023-10-19T01:22:51;6.90;99.90
16635;DHT22;8431;52.458;9.998;2023-10-19T01:25:44;6.90;99.90
16635;DHT22;8431;52.458;9.998;2023-10-19T01:28:15;6.90;99.90
16635;DHT22;8431;52.458;9.998;2023-10-19T01:30:43;6.90;99.90
16635;DHT22;8431;52.458;9.998;2023-10-19T01:33:11;6.80;99.90
16635;DHT22;8431;52.458;9.998;2023-10-19T01:35:41;6.80;99.90
16635;DHT22;8431;52.458;9.998;2023-10-19T01:38:27;6.80;99.90
16635;DHT22;8431;52.458;9.998;2023-10-19T01:40:56;6.80;99.90
16635;DHT22;8431;52.458;9.998;2023-10-19T01:43:25;6.70;99.90
16635;DHT22;8431;52.458;9.998;2023-10-19T01:45:56;6.70;99.90
16635;DHT22;8431;52.458;9.998;2023-10-19T01:48:23;6.70;99.90
16635;DHT22;8431;52.458;9.998;2023-10-19T01:50:59;6.80;99.90
16635;DHT22;8431;52.458;9.998;2023-10-19T01:53:30;6.80;99.90
16635;DHT22;8431;52.458;9.998;2023-10-19T01:55:57;6.80;99.90
16635;DHT22;8431;52.458;9.998;2023-10-19T01:58:24;6.80;99.90
16635;DHT22;8431;52.458;9.998;2023-10-19T02:00:51;6.80;99.90
16635;DHT22;8431;52.458;9.998;2023-10-19T02:03:20;6.80;99.90
16635;DHT22;8431;52.458;9.998;2023-10-19T02:05:57;6.80;99.90
16635;DHT22;8431;52.458;9.998;2023-10-19T02:08:24;6.70;99.90
16635;DHT22;8431;52.458;9.998;2023-10-19T02:10:53;6.80;99.90
16635;DHT22;8431;52.458;9.998;2023-10-19T02:13:21;6.70;99.90
16635;DHT22;8431;52.458;9.998;2023-10-19T02:15:46;6.70;99.90
16635;DHT22;8431;52.458;9.998;2023-10-19T02:18:20;6.70;99.90
16635;DHT22;8431;52.458;9.998;2023-10-19T02:20:46;6.70;99.90
16635;DHT22;8431;52.458;9.998;2023-10-19T02:23:14;6.70;99.90
16635;DHT22;8431;52.458;9.998;2023-10-19T02:25:40;6.70;99.90
16635;DHT22;8431;52.458;9.998;2023-10-19T02:28:10;6.70;99.90
16635;DHT22;8431;52.458;9.998;2023-10-19T02:30:37;6.70;99.90
16635;DHT22;8431;52.458;9.998;2023-10-19T02:33:06;6.70;99.90
16635;DHT22;8431;52.458;9.998;2023-10-19T02:35:33;6.70;99.90
16635;DHT22;8431;52.458;9.998;2023-10-19T02:38:01;6.70;99.90
16635;DHT22;8431;52.458;9.998;2023-10-19T02:40:31;6.70;99.90
16635;DHT22;8431;52.458;9.998;2023-10-19T02:42:59;6.70;99.90
16635;DHT22;8431;52.458;9.998;2023-10-19T02:45:29;6.70;99.90
16635;DHT22;8431;52.458;9.998;2023-10-19T02:47:58;6.70;99.90
16635;DHT22;8431;52.458;9.998;2023-10-19T02:50:24;6.80;99.90
16635;DHT22;8431;52.458;9.998;2023-10-19T02:52:52;6.80;99.90
16635;DHT22;8431;52.458;9.998;2023-10-19T02:55:18;6.80;99.90
16635;DHT22;8431;52.458;9.998;2023-10-19T02:57:46;6.80;99.90
16635;DHT22;8431;52.458;9.998;2023-10-19T03:00:13;6.70;99.90
16635;DHT22;8431;52.458;9.998;2023-10-19T03:02:42;6.70;99.90
16635;DHT22;8431;52.458;9.998;2023-10-19T03:05:08;6.80;99.90
16635;DHT22;8431;52.458;9.998;2023-10-19T03:07:41;6.80;99.90
16635;DHT22;8431;52.458;9.998;2023-10-19T03:10:09;6.70;99.90
16635;DHT22;8431;52.458;9.998;2023-10-19T03:12:49;6.70;99.90
16635;DHT22;8431;52.458;9.998;2023-10-19T03:15:15;6.70;99.90
16635;DHT22;8431;52.458;9.998;2023-10-19T03:17:44;6.80;99.90
16635;DHT22;8431;52.458;9.998;2023-10-19T03:20:11;6.80;99.90
16635;DHT22;8431;52.458;9.998;2023-10-19T03:22:37;6.70;99.90
16635;DHT22;8431;52.458;9.998;2023-10-19T03:25:04;6.70;99.90
16635;DHT22;8431;52.458;9.998;2023-10-19T03:27:58;6.80;99.90
16635;DHT22;8431;52.458;9.998;2023-10-19T03:30:31;6.80;99.90
16635;DHT22;8431;52.458;9.998;2023-10-19T03:33:00;6.80;99.90
16635;DHT22;8431;52.458;9.998;2023-10-19T03:35:27;6.80;99.90
16635;DHT22;8431;52.458;9.998;2023-10-19T03:37:53;6.70;99.90
16635;DHT22;8431;52.458;9.998;2023-10-19T03:40:23;6.80;99.90
16635;DHT22;8431;52.458;9.998;2023-10-19T03:42:55;6.80;99.90
16635;DHT22;8431;52.458;9.998;2023-10-19T03:45:24;6.70;99.90
16635;DHT22;8431;52.458;9.998;2023-10-19T03:47:51;6.80;99.90
16635;DHT22;8431;52.458;9.998;2023-10-19T03:50:22;6.80;99.90
16635;DHT22;8431;52.458;9.998;2023-10-19T03:52:51;6.70;99.90
16635;DHT22;8431;52.458;9.998;2023-10-19T03:55:19;6.70;99.90
16635;DHT22;8431;52.458;9.998;2023-10-19T03:57:48;6.70;99.90
16635;DHT22;8431;52.458;9.998;2023-10-19T04:00:20;6.80;99.90
16635;DHT22;8431;52.458;9.998;2023-10-19T04:03:14;6.70;99.90
16635;DHT22;8431;52.458;9.998;2023-10-19T04:05:44;6.70;99.90
16635;DHT22;8431;52.458;9.998;2023-10-19T04:08:12;6.70;99.90
16635;DHT22;8431;52.458;9.998;2023-10-19T04:10:41;6.70;99.90
16635;DHT22;8431;52.458;9.998;2023-10-19T04:13:13;6.60;99.90
16635;DHT22;8431;52.458;9.998;2023-10-19T04:15:40;6.70;99.90
16635;DHT22;8431;52.458;9.998;2023-10-19T04:18:07;6.70;99.90
16635;DHT22;8431;52.458;9.998;2023-10-19T04:20:37;6.70;99.90
16635;DHT22;8431;52.458;9.998;2023-10-19T04:23:23;6.70;99.90
16635;DHT22;8431;52.458;9.998;2023-10-19T04:25:54;6.70;99.90
16635;DHT22;8431;52.458;9.998;2023-10-19T04:28:23;6.70;99.90
16635;DHT22;8431;52.458;9.998;2023-10-19T04:30:59;6.70;99.90
16635;DHT22;8431;52.458;9.998;2023-10-19T04:33:29;6.70;99.90
16635;DHT22;8431;52.458;9.998;2023-10-19T04:35:56;6.70;99.90
16635;DHT22;8431;52.458;9.998;2023-10-19T04:38:27;6.80;99.90
16635;DHT22;8431;52.458;9.998;2023-10-19T04:41:03;6.70;99.90
16635;DHT22;8431;52.458;9.998;2023-10-19T04:43:33;6.70;99.90
16635;DHT22;8431;52.458;9.998;2023-10-19T04:46:00;6.70;99.90
16635;DHT22;8431;52.458;9.998;2023-10-19T04:48:33;6.70;99.90
16635;DHT22;8431;52.458;9.998;2023-10-19T04:51:01;6.70;99.90
16635;DHT22;8431;52.458;9.998;2023-10-19T04:53:30;6.70;99.90
16635;DHT22;8431;52.458;9.998;2023-10-19T04:55:57;6.70;99.90
16635;DHT22;8431;52.458;9.998;2023-10-19T04:58:26;6.70;99.90
16635;DHT22;8431;52.458;9.998;2023-10-19T05:00:53;6.70;99.90
16635;DHT22;8431;52.458;9.998;2023-10-19T05:03:20;6.70;99.90
16635;DHT22;8431;52.458;9.998;2023-10-19T05:05:49;6.70;99.90
16635;DHT22;8431;52.458;9.998;2023-10-19T05:08:17;6.70;99.90
16635;DHT22;8431;52.458;9.998;2023-10-19T05:10:46;6.70;99.90
16635;DHT22;8431;52.458;9.998;2023-10-19T05:13:12;6.70;99.90
16635;DHT22;8431;52.458;9.998;2023-10-19T05:15:39;6.70;99.90
16635;DHT22;8431;52.458;9.998;2023-10-19T05:18:08;6.70;99.90
16635;DHT22;8431;52.458;9.998;2023-10-19T05:20:36;6.70;99.90
16635;DHT22;8431;52.458;9.998;2023-10-19T05:23:07;6.70;99.90
16635;DHT22;8431;52.458;9.998;2023-10-19T05:25:34;6.80;99.90
16635;DHT22;8431;52.458;9.998;2023-10-19T05:28:05;6.80;99.90
16635;DHT22;8431;52.458;9.998;2023-10-19T05:30:32;6.70;99.90
16635;DHT22;8431;52.458;9.998;2023-10-19T05:32:59;6.70;99.90
16635;DHT22;8431;52.458;9.998;2023-10-19T05:35:28;6.70;99.90
16635;DHT22;8431;52.458;9.998;2023-10-19T05:38:00;6.80;99.90
16635;DHT22;8431;52.458;9.998;2023-10-19T05:40:31;6.80;99.90
16635;DHT22;8431;52.458;9.998;2023-10-19T05:42:59;6.70;99.90
16635;DHT22;8431;52.458;9.998;2023-10-19T05:45:28;6.80;99.90
16635;DHT22;8431;52.458;9.998;2023-10-19T05:47:56;6.80;99.90
16635;DHT22;8431;52.458;9.998;2023-10-19T05:50:23;6.80;99.90
16635;DHT22;8431;52.458;9.998;2023-10-19T05:52:50;6.80;99.90
16635;DHT22;8431;52.458;9.998;2023-10-19T05:55:18;6.70;99.90
16635;DHT22;8431;52.458;9.998;2023-10-19T05:57:47;6.70;99.90
16635;DHT22;8431;52.458;9.998;2023-10-19T06:00:15;6.80;99.90
16635;DHT22;8431;52.458;9.998;2023-10-19T06:02:46;6.80;99.90
16635;DHT22;8431;52.458;9.998;2023-10-19T06:05:13;6.70;99.90
16635;DHT22;8431;52.458;9.998;2023-10-19T06:07:42;6.80;99.90
16635;DHT22;8431;52.458;9.998;2023-10-19T06:10:11;6.80;99.90
16635;DHT22;8431;52.458;9.998;2023-10-19T06:12:41;6.80;99.90
16635;DHT22;8431;52.458;9.998;2023-10-19T06:15:09;6.80;99.90
16635;DHT22;8431;52.458;9.998;2023-10-19T06:17:38;6.80;99.90
16635;DHT22;8431;52.458;9.998;2023-10-19T06:20:36;6.80;99.90
16635;DHT22;8431;52.458;9.998;2023-10-19T06:23:05;6.80;99.90
16635;DHT22;8431;52.458;9.998;2023-10-19T06:25:32;6.80;99.90
16635;DHT22;8431;52.458;9.998;2023-10-19T06:28:00;6.80;99.90
16635;DHT22;8431;52.458;9.998;2023-10-19T06:30:27;6.80;99.90
16635;DHT22;8431;52.458;9.998;2023-10-19T06:32:56;6.80;99.90
16635;DHT22;8431;52.458;9.998;2023-10-19T06:35:27;6.80;99.90
16635;DHT22;8431;52.458;9.998;2023-10-19T06:37:55;6.80;99.90
16635;DHT22;8431;52.458;9.998;2023-10-19T06:40:22;6.80;99.90
16635;DHT22;8431;52.458;9.998;2023-10-19T06:42:49;6.80;99.90
16635;DHT22;8431;52.458;9.998;2023-10-19T06:45:19;6.80;99.90
16635;DHT22;8431;52.458;9.998;2023-10-19T06:47:49;6.80;99.90
16635;DHT22;8431;52.458;9.998;2023-10-19T06:50:18;6.80;99.90
16635;DHT22;8431;52.458;9.998;2023-10-19T06:52:46;6.90;99.90
16635;DHT22;8431;52.458;9.998;2023-10-19T06:55:15;6.90;99.90
16635;DHT22;8431;52.458;9.998;2023-10-19T06:57:48;6.90;99.90
16635;DHT22;8431;52.458;9.998;2023-10-19T07:00:16;6.90;99.90
16635;DHT22;8431;52.458;9.998;2023-10-19T07:02:51;6.90;99.90
16635;DHT22;8431;52.458;9.998;2023-10-19T07:05:18;7.00;99.90
16635;DHT22;8431;52.458;9.998;2023-10-19T07:07:48;6.90;99.90
16635;DHT22;8431;52.458;9.998;2023-10-19T07:10:19;6.90;99.90
16635;DHT22;8431;52.458;9.998;2023-10-19T07:13:13;6.80;99.90
16635;DHT22;8431;52.458;9.998;2023-10-19T07:15:44;6.90;99.90
16635;DHT22;8431;52.458;9.998;2023-10-19T07:18:12;6.80;99.90
16635;DHT22;8431;52.458;9.998;2023-10-19T07:20:39;6.90;99.90
16635;DHT22;8431;52.458;9.998;2023-10-19T07:23:11;6.90;99.90
16635;DHT22;8431;52.458;9.998;2023-10-19T07:25:45;6.90;99.90
16635;DHT22;8431;52.458;9.998;2023-10-19T07:28:14;6.90;99.90
16635;DHT22;8431;52.458;9.998;2023-10-19T07:30:41;6.90;99.90
16635;DHT22;8431;52.458;9.998;2023-10-19T07:33:09;6.90;99.90
16635;DHT22;8431;52.458;9.998;2023-10-19T07:35:37;6.90;99.90
16635;DHT22;8431;52.458;9.998;2023-10-19T07:38:04;6.90;99.90
16635;DHT22;8431;52.458;9.998;2023-10-19T07:40:33;6.90;99.90
16635;DHT22;8431;52.458;9.998;2023-10-19T07:43:02;6.90;99.90
16635;DHT22;8431;52.458;9.998;2023-10-19T07:45:29;6.90;99.90
16635;DHT22;8431;52.458;9.998;2023-10-19T07:47:57;6.80;99.90
16635;DHT22;8431;52.458;9.998;2023-10-19T07:50:31;6.90;99.90
16635;DHT22;8431;52.458;9.998;2023-10-19T07:52:58;6.80;99.90
16635;DHT22;8431;52.458;9.998;2023-10-19T07:55:25;6.90;99.90
16635;DHT22;8431;52.458;9.998;2023-10-19T07:57:55;6.80;99.90
16635;DHT22;8431;52.458;9.998;2023-10-19T08:00:27;7.00;99.90
16635;DHT22;8431;52.458;9.998;2023-10-19T08:02:58;6.90;99.90
16635;DHT22;8431;52.458;9.998;2023-10-19T08:05:25;7.00;99.90
16635;DHT22;8431;52.458;9.998;2023-10-19T08:07:55;7.00;99.90
16635;DHT22;8431;52.458;9.998;2023-10-19T08:10:26;7.00;99.90
16635;DHT22;8431;52.458;9.998;2023-10-19T08:12:53;7.10;99.90
16635;DHT22;8431;52.458;9.998;2023-10-19T08:18:30;7.20;99.90
16635;DHT22;8431;52.458;9.998;2023-10-19T08:20:58;7.20;99.90
16635;DHT22;8431;52.458;9.998;2023-10-19T08:23:25;7.10;99.90
16635;DHT22;8431;52.458;9.998;2023-10-19T08:25:53;7.20;99.90
16635;DHT22;8431;52.458;9.998;2023-10-19T08:28:20;7.10;99.90
16635;DHT22;8431;52.458;9.998;2023-10-19T08:30:48;7.20;99.90
16635;DHT22;8431;52.458;9.998;2023-10-19T08:33:23;7.20;99.90
16635;DHT22;8431;52.458;9.998;2023-10-19T08:35:56;7.30;99.90
16635;DHT22;8431;52.458;9.998;2023-10-19T08:38:23;7.40;99.90
16635;DHT22;8431;52.458;9.998;2023-10-19T08:40:50;7.30;99.90
16635;DHT22;8431;52.458;9.998;2023-10-19T08:43:17;7.30;99.90
16635;DHT22;8431;52.458;9.998;2023-10-19T08:45:45;7.40;99.90
16635;DHT22;8431;52.458;9.998;2023-10-19T08:48:18;7.30;99.90
16635;DHT22;8431;52.458;9.998;2023-10-19T08:51:08;7.40;99.90
16635;DHT22;8431;52.458;9.998;2023-10-19T08:53:37;7.50;99.90
16635;DHT22;8431;52.458;9.998;2023-10-19T08:56:06;7.50;99.90
16635;DHT22;8431;52.458;9.998;2023-10-19T08:58:34;7.50;99.90
16635;DHT22;8431;52.458;9.998;2023-10-19T09:01:13;7.50;99.90
16635;DHT22;8431;52.458;9.998;2023-10-19T09:03:41;7.50;99.90
16635;DHT22;8431;52.458;9.998;2023-10-19T09:06:11;7.60;99.90
16635;DHT22;8431;52.458;9.998;2023-10-19T09:08:41;7.80;99.90
16635;DHT22;8431;52.458;9.998;2023-10-19T09:11:11;7.80;99.90
16635;DHT22;8431;52.458;9.998;2023-10-19T09:13:45;7.70;99.90
16635;DHT22;8431;52.458;9.998;2023-10-19T09:16:16;7.70;99.90
16635;DHT22;8431;52.458;9.998;2023-10-19T09:18:43;7.70;99.90
16635;DHT22;8431;52.458;9.998;2023-10-19T09:21:14;7.70;99.90
16635;DHT22;8431;52.458;9.998;2023-10-19T09:23:53;7.70;99.90
16635;DHT22;8431;52.458;9.998;2023-10-19T09:26:21;7.80;99.90
16635;DHT22;8431;52.458;9.998;2023-10-19T09:28:52;7.90;99.90
16635;DHT22;8431;52.458;9.998;2023-10-19T09:31:20;7.80;99.90
16635;DHT22;8431;52.458;9.998;2023-10-19T09:33:52;7.90;99.90
16635;DHT22;8431;52.458;9.998;2023-10-19T09:36:22;7.90;99.90
16635;DHT22;8431;52.458;9.998;2023-10-19T09:38:52;7.90;99.90
16635;DHT22;8431;52.458;9.998;2023-10-19T09:41:20;7.80;99.90
16635;DHT22;8431;52.458;9.998;2023-10-19T09:43:49;7.90;99.90
16635;DHT22;8431;52.458;9.998;2023-10-19T09:46:21;8.00;99.90
16635;DHT22;8431;52.458;9.998;2023-10-19T09:48:49;8.00;99.90
16635;DHT22;8431;52.458;9.998;2023-10-19T09:51:18;8.00;99.90
16635;DHT22;8431;52.458;9.998;2023-10-19T09:53:51;8.00;99.90
16635;DHT22;8431;52.458;9.998;2023-10-19T09:56:21;8.20;99.90
16635;DHT22;8431;52.458;9.998;2023-10-19T09:58:55;8.10;99.90
16635;DHT22;8431;52.458;9.998;2023-10-19T10:01:24;8.10;99.90
16635;DHT22;8431;52.458;9.998;2023-10-19T10:04:03;8.10;99.90
16635;DHT22;8431;52.458;9.998;2023-10-19T10:06:57;8.10;99.90
16635;DHT22;8431;52.458;9.998;2023-10-19T10:09:27;7.90;99.90
16635;DHT22;8431;52.458;9.998;2023-10-19T10:11:56;8.00;99.90
16635;DHT22;8431;52.458;9.998;2023-10-19T10:14:24;8.10;99.90
16635;DHT22;8431;52.458;9.998;2023-10-19T10:16:59;8.20;99.90
16635;DHT22;8431;52.458;9.998;2023-10-19T10:19:27;8.20;99.90
16635;DHT22;8431;52.458;9.998;2023-10-19T10:22:03;8.20;99.90
16635;DHT22;8431;52.458;9.998;2023-10-19T10:24:39;8.10;99.90
16635;DHT22;8431;52.458;9.998;2023-10-19T10:27:07;8.20;99.90
16635;DHT22;8431;52.458;9.998;2023-10-19T10:29:35;8.30;99.90
16635;DHT22;8431;52.458;9.998;2023-10-19T10:32:05;8.40;99.90
16635;DHT22;8431;52.458;9.998;2023-10-19T10:34:45;8.20;99.90
16635;DHT22;8431;52.458;9.998;2023-10-19T10:37:14;8.20;99.90
16635;DHT22;8431;52.458;9.998;2023-10-19T10:39:42;8.30;99.90
16635;DHT22;8431;52.458;9.998;2023-10-19T10:42:10;8.40;99.90
16635;DHT22;8431;52.458;9.998;2023-10-19T10:44:39;8.20;99.90
16635;DHT22;8431;52.458;9.998;2023-10-19T10:47:07;8.30;99.90
16635;DHT22;8431;52.458;9.998;2023-10-19T10:49:48;8.20;99.90
16635;DHT22;8431;52.458;9.998;2023-10-19T10:52:24;8.20;99.90
16635;DHT22;8431;52.458;9.998;2023-10-19T10:54:55;8.20;99.90
16635;DHT22;8431;52.458;9.998;2023-10-19T10:57:22;8.20;99.90
16635;DHT22;8431;52.458;9.998;2023-10-19T11:00:02;8.20;99.90
16635;DHT22;8431;52.458;9.998;2023-10-19T11:02:31;8.40;99.90
16635;DHT22;8431;52.458;9.998;2023-10-19T11:04:59;8.50;99.90
16635;DHT22;8431;52.458;9.998;2023-10-19T11:07:26;8.50;99.90
16635;DHT22;8431;52.458;9.998;2023-10-19T11:09:53;8.50;99.90
16635;DHT22;8431;52.458;9.998;2023-10-19T11:12:21;8.40;99.90
16635;DHT22;8431;52.458;9.998;2023-10-19T11:14:53;8.40;99.90
16635;DHT22;8431;52.458;9.998;2023-10-19T11:17:20;8.30;99.90
16635;DHT22;8431;52.458;9.998;2023-10-19T11:19:53;8.40;99.90
16635;DHT22;8431;52.458;9.998;2023-10-19T11:22:22;8.40;99.90
16635;DHT22;8431;52.458;9.998;2023-10-19T11:24:50;8.20;99.90
16635;DHT22;8431;52.458;9.998;2023-10-19T11:27:24;8.30;99.90
16635;DHT22;8431;52.458;9.998;2023-10-19T11:29:56;8.20;99.90
16635;DHT22;8431;52.458;9.998;2023-10-19T11:32:25;8.30;99.90
16635;DHT22;8431;52.458;9.998;2023-10-19T11:34:53;8.30;99.90
16635;DHT22;8431;52.458;9.998;2023-10-19T11:37:21;8.40;99.90
16635;DHT22;8431;52.458;9.998;2023-10-19T11:39:51;8.20;99.90
16635;DHT22;8431;52.458;9.998;2023-10-19T11:42:18;8.20;99.90
16635;DHT22;8431;52.458;9.998;2023-10-19T11:44:46;8.30;99.90
16635;DHT22;8431;52.458;9.998;2023-10-19T11:47:13;8.30;99.90
16635;DHT22;8431;52.458;9.998;2023-10-19T11:49:40;8.40;99.90
16635;DHT22;8431;52.458;9.998;2023-10-19T11:52:07;8.20;99.90
16635;DHT22;8431;52.458;9.998;2023-10-19T11:54:34;8.30;99.90
16635;DHT22;8431;52.458;9.998;2023-10-19T11:57:01;8.20;99.90
16635;DHT22;8431;52.458;9.998;2023-10-19T11:59:28;8.20;99.90
16635;DHT22;8431;52.458;9.998;2023-10-19T12:01:56;8.20;99.90
16635;DHT22;8431;52.458;9.998;2023-10-19T12:04:24;8.20;99.90
16635;DHT22;8431;52.458;9.998;2023-10-19T12:06:51;8.20;99.90
16635;DHT22;8431;52.458;9.998;2023-10-19T12:09:18;8.10;99.90
16635;DHT22;8431;52.458;9.998;2023-10-19T12:11:50;8.20;99.90
16635;DHT22;8431;52.458;9.998;2023-10-19T12:14:18;8.00;99.90
16635;DHT22;8431;52.458;9.998;2023-10-19T12:16:46;8.00;99.90
16635;DHT22;8431;52.458;9.998;2023-10-19T12:19:18;8.00;99.90
16635;DHT22;8431;52.458;9.998;2023-10-19T12:21:45;8.00;99.90
16635;DHT22;8431;52.458;9.998;2023-10-19T12:24:12;8.10;99.90
16635;DHT22;8431;52.458;9.998;2023-10-19T12:26:40;8.00;99.90
16635;DHT22;8431;52.458;9.998;2023-10-19T12:29:11;8.00;99.90
16635;DHT22;8431;52.458;9.998;2023-10-19T12:31:40;7.90;99.90
16635;DHT22;8431;52.458;9.998;2023-10-19T12:34:07;8.00;99.90
16635;DHT22;8431;52.458;9.998;2023-10-19T12:36:36;8.10;99.90
16635;DHT22;8431;52.458;9.998;2023-10-19T12:39:03;8.00;99.90
16635;DHT22;8431;52.458;9.998;2023-10-19T12:41:35;8.00;99.90
16635;DHT22;8431;52.458;9.998;2023-10-19T12:44:01;7.90;99.90
16635;DHT22;8431;52.458;9.998;2023-10-19T12:46:33;7.90;99.90
16635;DHT22;8431;52.458;9.998;2023-10-19T12:49:05;7.80;99.90
16635;DHT22;8431;52.458;9.998;2023-10-19T12:51:35;7.80;99.90
16635;DHT22;8431;52.458;9.998;2023-10-19T12:54:04;7.80;99.90
16635;DHT22;8431;52.458;9.998;2023-10-19T12:56:35;7.90;99.90
16635;DHT22;8431;52.458;9.998;2023-10-19T12:59:04;7.80;99.90
16635;DHT22;8431;52.458;9.998;2023-10-19T13:01:33;7.80;99.90
16635;DHT22;8431;52.458;9.998;2023-10-19T13:04:01;7.90;99.90
16635;DHT22;8431;52.458;9.998;2023-10-19T13:06:40;8.00;99.90
16635;DHT22;8431;52.458;9.998;2023-10-19T13:09:07;7.90;99.90
16635;DHT22;8431;52.458;9.998;2023-10-19T13:11:35;8.00;99.90
16635;DHT22;8431;52.458;9.998;2023-10-19T13:14:04;8.10;99.90
16635;DHT22;8431;52.458;9.998;2023-10-19T13:16:32;8.00;99.90
16635;DHT22;8431;52.458;9.998;2023-10-19T13:18:59;8.00;99.90
16635;DHT22;8431;52.458;9.998;2023-10-19T13:21:35;8.00;99.90
16635;DHT22;8431;52.458;9.998;2023-10-19T13:24:05;8.00;99.90
16635;DHT22;8431;52.458;9.998;2023-10-19T13:26:32;8.00;99.90
16635;DHT22;8431;52.458;9.998;2023-10-19T13:28:59;8.00;99.90
16635;DHT22;8431;52.458;9.998;2023-10-19T13:31:27;8.00;99.90
16635;DHT22;8431;52.458;9.998;2023-10-19T13:33:54;8.00;99.90
16635;DHT22;8431;52.458;9.998;2023-10-19T13:36:21;8.00;99.90
16635;DHT22;8431;52.458;9.998;2023-10-19T13:38:48;7.90;99.90
16635;DHT22;8431;52.458;9.998;2023-10-19T13:41:16;7.90;99.90
16635;DHT22;8431;52.458;9.998;2023-10-19T13:43:43;7.90;99.90
16635;DHT22;8431;52.458;9.998;2023-10-19T13:46:10;7.80;99.90
16635;DHT22;8431;52.458;9.998;2023-10-19T13:48:37;7.90;99.90
16635;DHT22;8431;52.458;9.998;2023-10-19T13:51:05;7.80;99.90
16635;DHT22;8431;52.458;9.998;2023-10-19T13:53:38;7.80;99.90
16635;DHT22;8431;52.458;9.998;2023-10-19T13:56:07;7.90;99.90
16635;DHT22;8431;52.458;9.998;2023-10-19T13:58:36;7.90;99.90
16635;DHT22;8431;52.458;9.998;2023-10-19T14:01:10;7.90;99.90
16635;DHT22;8431;52.458;9.998;2023-10-19T14:03:47;7.80;99.90
16635;DHT22;8431;52.458;9.998;2023-10-19T14:06:17;7.90;99.90
16635;DHT22;8431;52.458;9.998;2023-10-19T14:08:45;7.80;99.90
16635;DHT22;8431;52.458;9.998;2023-10-19T14:11:37;7.80;99.90
16635;DHT22;8431;52.458;9.998;2023-10-19T14:14:06;7.80;99.90
16635;DHT22;8431;52.458;9.998;2023-10-19T14:16:34;7.70;99.90
16635;DHT22;8431;52.458;9.998;2023-10-19T14:19:02;7.80;99.90
16635;DHT22;8431;52.458;9.998;2023-10-19T14:21:30;7.80;99.90
16635;DHT22;8431;52.458;9.998;2023-10-19T14:24:07;7.70;99.90
16635;DHT22;8431;52.458;9.998;2023-10-19T14:26:35;7.70;99.90
16635;DHT22;8431;52.458;9.998;2023-10-19T14:29:05;7.70;99.90
16635;DHT22;8431;52.458;9.998;2023-10-19T14:31:32;7.60;99.90
16635;DHT22;8431;52.458;9.998;2023-10-19T14:33:59;7.60;99.90
16635;DHT22;8431;52.458;9.998;2023-10-19T14:36:29;7.60;99.90
16635;DHT22;8431;52.458;9.998;2023-10-19T14:38:57;7.60;99.90
16635;DHT22;8431;52.458;9.998;2023-10-19T14:41:30;7.50;99.90
16635;DHT22;8431;52.458;9.998;2023-10-19T14:43:58;7.50;99.90
16635;DHT22;8431;52.458;9.998;2023-10-19T14:46:28;7.60;99.90
16635;DHT22;8431;52.458;9.998;2023-10-19T14:48:55;7.60;99.90
16635;DHT22;8431;52.458;9.998;2023-10-19T14:51:22;7.60;99.90
16635;DHT22;8431;52.458;9.998;2023-10-19T14:53:49;7.60;99.90
16635;DHT22;8431;52.458;9.998;2023-10-19T14:56:16;7.60;99.90
16635;DHT22;8431;52.458;9.998;2023-10-19T14:58:43;7.70;99.90
16635;DHT22;8431;52.458;9.998;2023-10-19T15:01:10;7.60;99.90
16635;DHT22;8431;52.458;9.998;2023-10-19T15:03:43;7.60;99.90
16635;DHT22;8431;52.458;9.998;2023-10-19T15:06:10;7.60;99.90
16635;DHT22;8431;52.458;9.998;2023-10-19T15:08:40;7.60;99.90
16635;DHT22;8431;52.458;9.998;2023-10-19T15:11:07;7.60;99.90
16635;DHT22;8431;52.458;9.998;2023-10-19T15:13:37;7.70;99.90
16635;DHT22;8431;52.458;9.998;2023-10-19T15:16:08;7.60;99.90
16635;DHT22;8431;52.458;9.998;2023-10-19T15:18:35;7.50;99.90
16635;DHT22;8431;52.458;9.998;2023-10-19T15:21:08;7.50;99.90
16635;DHT22;8431;52.458;9.998;2023-10-19T15:23:35;7.50;99.90
16635;DHT22;8431;52.458;9.998;2023-10-19T15:26:02;7.50;99.90
16635;DHT22;8431;52.458;9.998;2023-10-19T15:28:29;7.50;99.90
16635;DHT22;8431;52.458;9.998;2023-10-19T15:30:58;7.40;99.90
16635;DHT22;8431;52.458;9.998;2023-10-19T15:33:25;7.40;99.90
16635;DHT22;8431;52.458;9.998;2023-10-19T15:35:54;7.40;99.90
16635;DHT22;8431;52.458;9.998;2023-10-19T15:38:22;7.40;99.90
16635;DHT22;8431;52.458;9.998;2023-10-19T15:40:49;7.50;99.90
16635;DHT22;8431;52.458;9.998;2023-10-19T15:43:16;7.50;99.90
16635;DHT22;8431;52.458;9.998;2023-10-19T15:45:43;7.50;99.90
16635;DHT22;8431;52.458;9.998;2023-10-19T15:48:11;7.40;99.90
16635;DHT22;8431;52.458;9.998;2023-10-19T15:50:39;7.40;99.90
16635;DHT22;8431;52.458;9.998;2023-10-19T15:53:09;7.30;99.90
16635;DHT22;8431;52.458;9.998;2023-10-19T15:55:40;7.30;99.90
16635;DHT22;8431;52.458;9.998;2023-10-19T15:58:07;7.30;99.90
16635;DHT22;8431;52.458;9.998;2023-10-19T16:00:36;7.30;99.90
16635;DHT22;8431;52.458;9.998;2023-10-19T16:03:05;7.30;99.90
16635;DHT22;8431;52.458;9.998;2023-10-19T16:05:32;7.20;99.90
16635;DHT22;8431;52.458;9.998;2023-10-19T16:07:59;7.30;99.90
16635;DHT22;8431;52.458;9.998;2023-10-19T16:10:26;7.30;99.90
16635;DHT22;8431;52.458;9.998;2023-10-19T16:12:54;7.30;99.90
16635;DHT22;8431;52.458;9.998;2023-10-19T16:15:21;7.30;99.90
16635;DHT22;8431;52.458;9.998;2023-10-19T16:17:48;7.30;99.90
16635;DHT22;8431;52.458;9.998;2023-10-19T16:20:16;7.30;99.90
16635;DHT22;8431;52.458;9.998;2023-10-19T16:22:43;7.30;99.90